Time;durP1;ratioP1;P1;durP2;ratioP2;P2;SDS_P1;SDS_P2;PMS_P1;PMS_P2;Temp;Humidity;BMP_temperature;BMP_pressure;BME280_temperature;BME280_humidity;BME280_pressure;Samples;Min_cycle;Max_cycle;Signal;HPM_P1;HPM_P2
2022/05/10 00:00:12;;;;;;;7.25;6.53;;;12.20;99.90;;;;;;4952331;29;20443;-63
2022/05/10 00:02:37;;;;;;;8.15;6.22;;;12.20;99.90;;;;;;4951945;29;20606;-63
2022/05/10 00:05:04;;;;;;;8.10;6.53;;;12.10;99.90;;;;;;4951646;29;20118;-63
2022/05/10 00:07:33;;;;;;;7.28;6.68;;;12.10;99.90;;;;;;4952193;28;20038;-63
2022/05/10 00:09:59;;;;;;;9.70;6.75;;;12.00;99.90;;;;;;4952042;29;20031;-63
2022/05/10 00:12:25;;;;;;;10.63;6.72;;;12.00;99.90;;;;;;4951752;28;20044;-62
2022/05/10 00:14:50;;;;;;;7.68;6.93;;;12.00;99.90;;;;;;4952486;29;20024;-63
2022/05/10 00:17:27;;;;;;;9.05;7.03;;;12.00;99.90;;;;;;4934885;29;20027;-63
2022/05/10 00:19:54;;;;;;;9.48;7.43;;;11.90;99.90;;;;;;4929671;29;20061;-63
2022/05/10 00:22:19;;;;;;;7.40;6.70;;;11.90;99.90;;;;;;4951236;28;20035;-63
2022/05/10 00:24:45;;;;;;;7.00;6.40;;;11.80;99.90;;;;;;4950924;28;20038;-63
2022/05/10 00:27:11;;;;;;;7.57;6.85;;;11.70;99.90;;;;;;4952384;29;20086;-63
2022/05/10 00:29:36;;;;;;;7.30;6.38;;;11.60;99.90;;;;;;4952157;29;20054;-64
2022/05/10 00:32:02;;;;;;;9.15;6.68;;;11.60;99.90;;;;;;4951808;29;20035;-63
2022/05/10 00:34:29;;;;;;;6.47;6.05;;;11.50;99.90;;;;;;4951437;29;20033;-63
2022/05/10 00:36:56;;;;;;;7.53;6.85;;;11.50;99.90;;;;;;4949179;29;20046;-64
2022/05/10 00:39:22;;;;;;;7.20;6.55;;;11.50;99.90;;;;;;4950953;29;20053;-63
2022/05/10 00:41:56;;;;;;;9.95;7.93;;;11.40;99.90;;;;;;4952298;29;20058;-63
2022/05/10 00:44:37;;;;;;;8.30;7.55;;;11.40;99.90;;;;;;4950265;29;20427;-62
2022/05/10 00:47:25;;;;;;;7.57;6.85;;;11.30;99.90;;;;;;4951635;29;20075;-63
2022/05/10 00:50:01;;;;;;;7.38;6.88;;;11.30;99.90;;;;;;4949901;29;20039;-62
2022/05/10 00:52:51;;;;;;;7.32;6.63;;;11.30;99.90;;;;;;4935587;29;20495;-63
2022/05/10 00:55:31;;;;;;;8.10;7.00;;;11.30;99.90;;;;;;4950075;29;20043;-62
2022/05/10 00:58:07;;;;;;;11.82;7.88;;;11.30;99.90;;;;;;4950930;29;20065;-63
2022/05/10 01:00:33;;;;;;;8.05;7.35;;;11.30;99.90;;;;;;4950518;29;20027;-62
2022/05/10 01:03:22;;;;;;;8.48;7.78;;;11.30;99.90;;;;;;4951476;28;20022;-64
2022/05/10 01:06:08;;;;;;;9.05;8.30;;;11.30;99.90;;;;;;4969260;28;20498;-62
2022/05/10 01:08:58;;;;;;;9.27;8.32;;;11.20;99.90;;;;;;4970675;28;20502;-64
2022/05/10 01:12:00;;;;;;;12.07;8.32;;;11.20;99.90;;;;;;4957931;28;20022;-63
2022/05/10 01:14:26;;;;;;;7.63;7.03;;;11.20;99.90;;;;;;4969092;28;20023;-63
2022/05/10 01:16:51;;;;;;;9.73;7.18;;;11.10;99.90;;;;;;4968404;28;20509;-63
2022/05/10 01:19:17;;;;;;;7.40;6.72;;;11.10;99.90;;;;;;4970571;28;20042;-62
2022/05/10 01:21:55;;;;;;;7.82;7.13;;;11.00;99.90;;;;;;4969069;28;20042;-63
2022/05/10 01:24:50;;;;;;;11.68;7.22;;;10.90;99.90;;;;;;4968508;28;20034;-62
2022/05/10 01:27:46;;;;;;;10.95;9.60;;;10.80;99.90;;;;;;4969211;28;20027;-63
2022/05/10 01:30:16;;;;;;;9.20;8.38;;;10.70;99.90;;;;;;4969136;28;20097;-63
2022/05/10 01:35:39;;;;;;;9.93;9.13;;;10.60;99.90;;;;;;4969443;28;20077;-62
2022/05/10 01:38:16;;;;;;;9.52;8.65;;;10.50;99.90;;;;;;4969718;28;20078;-64
2022/05/10 01:40:47;;;;;;;16.35;9.35;;;10.50;99.90;;;;;;4969455;28;20035;-61
2022/05/10 01:43:32;;;;;;;10.57;9.40;;;10.50;99.90;;;;;;4969980;28;20026;-61
2022/05/10 01:46:12;;;;;;;10.90;8.50;;;10.40;99.90;;;;;;4968446;28;20039;-62
2022/05/10 01:48:40;;;;;;;8.98;8.27;;;10.40;99.90;;;;;;4952185;28;20041;-61
2022/05/10 01:51:33;;;;;;;8.07;7.38;;;10.40;99.90;;;;;;4969610;28;20045;-61
2022/05/10 01:53:59;;;;;;;8.57;7.88;;;10.30;99.90;;;;;;4969595;28;20051;-61
2022/05/10 01:56:27;;;;;;;10.95;9.95;;;10.30;99.90;;;;;;4969271;28;20406;-61
2022/05/10 01:58:53;;;;;;;12.05;11.15;;;10.30;99.90;;;;;;4968577;28;20038;-61
2022/05/10 02:01:28;;;;;;;12.77;11.65;;;10.30;99.90;;;;;;4969525;28;20023;-61
2022/05/10 02:04:02;;;;;;;11.85;10.75;;;10.40;99.90;;;;;;4969330;28;20035;-61
2022/05/10 02:06:42;;;;;;;11.30;9.48;;;10.30;99.90;;;;;;4969431;28;20030;-61
2022/05/10 02:09:31;;;;;;;10.77;9.98;;;10.30;99.90;;;;;;4970178;28;20042;-61
2022/05/10 02:12:20;;;;;;;9.73;8.82;;;10.30;99.90;;;;;;4969593;28;20443;-61
2022/05/10 02:14:58;;;;;;;8.57;7.88;;;10.20;99.90;;;;;;4947799;29;20035;-61
2022/05/10 02:17:42;;;;;;;9.70;8.90;;;10.10;99.90;;;;;;4966635;28;20062;-61
2022/05/10 02:20:28;;;;;;;14.13;9.60;;;10.10;99.90;;;;;;4969862;28;20031;-61
2022/05/10 02:23:15;;;;;;;12.02;10.23;;;10.00;99.90;;;;;;4968460;28;20026;-61
2022/05/10 02:25:45;;;;;;;10.27;9.48;;;9.90;99.90;;;;;;4968891;28;20027;-61
2022/05/10 02:28:25;;;;;;;11.48;9.95;;;9.90;99.90;;;;;;4968419;28;20035;-61
2022/05/10 02:30:56;;;;;;;10.85;9.85;;;9.80;99.90;;;;;;4969854;28;20027;-61
2022/05/10 02:33:22;;;;;;;12.35;11.35;;;9.80;99.90;;;;;;4968105;28;20058;-61
2022/05/10 02:35:58;;;;;;;10.88;10.07;;;9.70;99.90;;;;;;4969932;28;20023;-61
2022/05/10 02:38:28;;;;;;;13.85;11.52;;;9.70;99.90;;;;;;4969513;28;20050;-61
2022/05/10 02:40:57;;;;;;;13.65;12.07;;;9.70;99.90;;;;;;4968153;28;20042;-61
2022/05/10 02:43:29;;;;;;;11.50;10.70;;;9.70;99.90;;;;;;4968533;28;20034;-60
2022/05/10 02:45:55;;;;;;;11.00;10.18;;;9.60;99.90;;;;;;4961294;28;20547;-61
2022/05/10 02:48:26;;;;;;;10.85;9.88;;;9.60;99.90;;;;;;4949719;29;20078;-61
2022/05/10 02:50:51;;;;;;;11.57;10.47;;;9.60;99.90;;;;;;4967964;28;20110;-61
2022/05/10 02:53:17;;;;;;;13.57;12.38;;;9.60;99.90;;;;;;4968658;28;20133;-61
2022/05/10 02:55:54;;;;;;;12.98;11.80;;;9.50;99.90;;;;;;4968998;28;20399;-61
2022/05/10 02:58:31;;;;;;;13.88;11.65;;;9.60;99.90;;;;;;4969659;28;20023;-61
2022/05/10 03:01:19;;;;;;;12.85;11.60;;;9.50;99.90;;;;;;4968885;28;20101;-61
2022/05/10 03:03:45;;;;;;;13.43;12.13;;;9.50;99.90;;;;;;4967208;28;20027;-61
2022/05/10 03:06:19;;;;;;;13.07;12.00;;;9.50;99.90;;;;;;4952639;28;20422;-62
2022/05/10 03:08:46;;;;;;;12.60;11.35;;;9.50;99.90;;;;;;4968941;28;20438;-60
2022/05/10 03:11:12;;;;;;;12.55;11.45;;;9.40;99.90;;;;;;4969278;28;20033;-60
2022/05/10 03:13:38;;;;;;;11.95;10.95;;;9.40;99.90;;;;;;4971211;28;20477;-61
2022/05/10 03:16:04;;;;;;;11.45;10.30;;;9.30;99.90;;;;;;4972929;28;20545;-60
2022/05/10 03:18:29;;;;;;;11.13;10.32;;;9.20;99.90;;;;;;4972836;28;20023;-61
2022/05/10 03:20:55;;;;;;;11.32;10.52;;;9.20;99.90;;;;;;4972529;28;20495;-61
2022/05/10 03:23:21;;;;;;;11.75;10.55;;;9.10;99.90;;;;;;4957304;28;20030;-61
2022/05/10 03:25:47;;;;;;;13.20;11.60;;;9.10;99.90;;;;;;4971430;28;20114;-60
2022/05/10 03:28:14;;;;;;;12.38;11.38;;;9.00;99.90;;;;;;4972315;28;20122;-61
2022/05/10 03:30:39;;;;;;;16.90;12.23;;;9.00;99.90;;;;;;4972102;28;20114;-61
2022/05/10 03:33:06;;;;;;;13.73;12.63;;;9.00;99.90;;;;;;4970342;28;20105;-61
2022/05/10 03:35:31;;;;;;;13.75;12.73;;;9.10;99.90;;;;;;4971760;28;20046;-61
2022/05/10 03:37:57;;;;;;;14.52;13.13;;;9.10;99.90;;;;;;4972510;28;20483;-61
2022/05/10 03:40:23;;;;;;;14.27;12.90;;;9.10;99.90;;;;;;4954652;28;20027;-61
2022/05/10 03:42:50;;;;;;;13.07;11.98;;;9.10;99.90;;;;;;4954801;28;20109;-61
2022/05/10 03:45:18;;;;;;;13.93;12.68;;;9.10;99.90;;;;;;4972302;28;20033;-61
2022/05/10 03:47:45;;;;;;;14.98;13.88;;;9.10;99.90;;;;;;4972030;28;20546;-61
2022/05/10 03:50:13;;;;;;;15.57;14.38;;;9.10;99.90;;;;;;4972107;28;20035;-61
2022/05/10 03:52:41;;;;;;;19.23;17.35;;;9.20;99.90;;;;;;4971369;28;20023;-61
2022/05/10 03:55:09;;;;;;;18.23;16.38;;;9.20;99.90;;;;;;4971328;28;20035;-61
2022/05/10 03:57:36;;;;;;;15.73;14.52;;;9.20;99.90;;;;;;4971851;28;20047;-61
2022/05/10 04:00:05;;;;;;;14.90;13.70;;;9.20;99.90;;;;;;4972742;28;20089;-60
2022/05/10 04:02:31;;;;;;;15.05;13.98;;;9.30;99.90;;;;;;4971935;28;20093;-61
2022/05/10 04:04:56;;;;;;;16.77;15.25;;;9.30;99.90;;;;;;4970982;28;20499;-61
2022/05/10 04:07:22;;;;;;;14.73;13.52;;;9.40;99.90;;;;;;4972257;28;20191;-61
2022/05/10 04:09:48;;;;;;;19.05;11.75;;;9.40;99.90;;;;;;4970975;28;20038;-61
2022/05/10 04:12:13;;;;;;;12.45;11.45;;;9.40;99.90;;;;;;4971456;28;20057;-61
2022/05/10 04:14:39;;;;;;;16.23;14.63;;;9.40;99.90;;;;;;4970004;28;20098;-60
2022/05/10 04:17:05;;;;;;;13.23;12.13;;;9.40;99.90;;;;;;4971495;28;20102;-60
2022/05/10 04:19:30;;;;;;;14.23;13.23;;;9.40;99.90;;;;;;4971404;28;20041;-60
2022/05/10 04:21:56;;;;;;;14.07;13.05;;;9.50;99.90;;;;;;4970037;28;20491;-60
2022/05/10 04:24:22;;;;;;;15.35;13.82;;;9.50;99.90;;;;;;4971393;28;20054;-61
2022/05/10 04:26:49;;;;;;;14.80;13.38;;;9.50;99.90;;;;;;4969285;28;20043;-60
2022/05/10 04:29:14;;;;;;;13.43;12.32;;;9.60;99.90;;;;;;4970878;28;20027;-60
2022/05/10 04:31:40;;;;;;;15.50;14.30;;;9.70;99.90;;;;;;4969653;28;20039;-60
2022/05/10 04:34:06;;;;;;;15.98;14.85;;;9.70;99.90;;;;;;4969515;28;20055;-60
2022/05/10 04:36:32;;;;;;;15.65;14.10;;;9.90;99.90;;;;;;4970645;28;20106;-61
2022/05/10 04:38:58;;;;;;;15.95;14.48;;;10.00;99.90;;;;;;4971657;28;20023;-61
2022/05/10 04:41:32;;;;;;;15.32;14.13;;;10.10;99.90;;;;;;4971014;28;20554;-60
2022/05/10 04:44:00;;;;;;;15.77;14.25;;;10.20;99.90;;;;;;4956194;28;20428;-60
2022/05/10 04:46:28;;;;;;;15.55;14.32;;;10.30;99.90;;;;;;4961693;28;20029;-60
2022/05/10 04:48:54;;;;;;;16.02;14.50;;;10.40;99.90;;;;;;4970401;28;20029;-60
2022/05/10 04:51:20;;;;;;;14.85;13.85;;;10.50;99.90;;;;;;4971231;28;20098;-60
2022/05/10 04:53:45;;;;;;;15.55;14.25;;;10.50;99.90;;;;;;4969968;28;20035;-60
2022/05/10 04:56:11;;;;;;;17.40;14.40;;;10.70;99.90;;;;;;4954924;28;20089;-61
2022/05/10 04:58:37;;;;;;;14.25;13.00;;;10.80;99.90;;;;;;4955351;28;20030;-60
2022/05/10 05:01:08;;;;;;;11.88;10.95;;;11.00;99.90;;;;;;4970946;28;20050;-60
2022/05/10 05:03:34;;;;;;;11.10;10.30;;;11.40;99.90;;;;;;4970169;28;20110;-60
2022/05/10 05:06:00;;;;;;;10.75;9.85;;;12.10;99.90;;;;;;4970618;28;20379;-61
2022/05/10 05:08:26;;;;;;;9.60;8.75;;;12.80;99.90;;;;;;4969599;28;20034;-60
2022/05/10 05:10:53;;;;;;;8.60;7.80;;;13.80;99.90;;;;;;4970274;28;20039;-60
2022/05/10 05:13:19;;;;;;;7.70;7.00;;;14.90;99.90;;;;;;4969487;28;20051;-61
2022/05/10 05:15:44;;;;;;;6.30;5.70;;;16.10;99.90;;;;;;4969231;28;20054;-61
2022/05/10 05:18:10;;;;;;;6.35;5.88;;;17.40;99.90;;;;;;4971273;28;20430;-61
2022/05/10 05:20:38;;;;;;;6.15;5.65;;;18.60;99.90;;;;;;4968356;28;20098;-61
2022/05/10 05:23:08;;;;;;;5.57;5.18;;;19.70;98.90;;;;;;4970142;28;20027;-61
2022/05/10 05:25:36;;;;;;;4.90;4.53;;;20.60;93.20;;;;;;4970088;28;20031;-59
2022/05/10 05:28:02;;;;;;;5.35;4.90;;;21.30;87.50;;;;;;4961664;28;20039;-59
2022/05/10 05:30:28;;;;;;;5.00;4.57;;;21.60;83.50;;;;;;4952140;28;20098;-59
2022/05/10 05:32:53;;;;;;;4.75;4.40;;;21.80;81.30;;;;;;4969416;28;20541;-59
2022/05/10 05:35:19;;;;;;;5.15;4.72;;;22.20;79.00;;;;;;4969440;28;20109;-59
2022/05/10 05:37:45;;;;;;;5.60;4.72;;;22.40;76.20;;;;;;4969641;28;20023;-59
2022/05/10 05:40:14;;;;;;;6.95;5.13;;;22.50;74.10;;;;;;4968265;28;20491;-59
2022/05/10 05:42:40;;;;;;;7.55;4.80;;;23.10;73.30;;;;;;4969758;28;20034;-59
2022/05/10 05:45:08;;;;;;;5.57;4.30;;;23.60;71.00;;;;;;4970128;28;20054;-59
2022/05/10 05:47:35;;;;;;;17.30;5.50;;;23.90;68.50;;;;;;4969378;28;20502;-60
2022/05/10 05:50:00;;;;;;;4.63;4.22;;;23.90;67.60;;;;;;4969755;28;20081;-59
2022/05/10 05:52:26;;;;;;;8.07;5.47;;;24.30;67.40;;;;;;4969795;28;20034;-60
2022/05/10 05:54:53;;;;;;;6.28;5.13;;;24.70;64.30;;;;;;4968858;28;20491;-60
2022/05/10 05:57:19;;;;;;;5.75;5.35;;;24.30;63.10;;;;;;4970603;28;20027;-59
2022/05/10 05:59:46;;;;;;;5.78;5.28;;;24.00;64.10;;;;;;4969542;28;20023;-59
2022/05/10 06:02:14;;;;;;;6.32;5.82;;;24.30;65.80;;;;;;4968204;28;20125;-60
2022/05/10 06:04:40;;;;;;;6.18;5.65;;;23.30;63.60;;;;;;4969062;28;20058;-59
2022/05/10 06:07:06;;;;;;;7.45;5.55;;;23.30;65.20;;;;;;4969560;28;20033;-59
2022/05/10 06:09:32;;;;;;;6.45;5.82;;;23.30;65.90;;;;;;4969589;28;20023;-59
2022/05/10 06:11:57;;;;;;;6.38;5.93;;;23.60;67.10;;;;;;4969967;28;20035;-59
2022/05/10 06:14:23;;;;;;;6.18;5.70;;;23.70;65.00;;;;;;4967778;28;20023;-60
2022/05/10 06:16:49;;;;;;;5.93;5.43;;;23.60;66.10;;;;;;4969063;28;20394;-60
2022/05/10 06:19:14;;;;;;;11.68;6.45;;;23.70;65.20;;;;;;4968742;28;20495;-59
2022/05/10 06:21:41;;;;;;;6.10;5.53;;;23.90;65.90;;;;;;4969011;28;20039;-60
2022/05/10 06:24:10;;;;;;;6.43;5.93;;;24.50;65.20;;;;;;4968919;28;20027;-60
2022/05/10 06:26:36;;;;;;;6.57;5.65;;;25.60;63.20;;;;;;4969581;28;20027;-60
2022/05/10 06:29:02;;;;;;;5.97;5.47;;;26.70;59.60;;;;;;4968469;28;20046;-59
2022/05/10 06:31:28;;;;;;;6.68;5.75;;;27.50;57.10;;;;;;4967434;28;20053;-60
2022/05/10 06:33:54;;;;;;;6.90;5.38;;;27.70;56.00;;;;;;4968753;28;20026;-60
2022/05/10 06:36:19;;;;;;;6.57;5.07;;;28.10;55.60;;;;;;4969100;28;20030;-60
2022/05/10 06:38:45;;;;;;;5.60;5.20;;;28.70;55.20;;;;;;4969742;28;20019;-60
2022/05/10 06:41:11;;;;;;;5.13;4.72;;;28.80;53.00;;;;;;4968569;28;20027;-60
2022/05/10 06:43:37;;;;;;;5.35;4.95;;;28.80;53.10;;;;;;4945770;28;20131;-60
2022/05/10 06:46:15;;;;;;;4.82;4.53;;;29.20;53.30;;;;;;4969072;28;20027;-60
2022/05/10 06:48:45;;;;;;;6.93;5.22;;;29.60;52.10;;;;;;4971107;28;20514;-60
2022/05/10 06:51:11;;;;;;;5.38;4.63;;;29.90;50.60;;;;;;4972018;28;20043;-60
2022/05/10 06:53:37;;;;;;;4.40;4.10;;;29.90;50.90;;;;;;4970111;28;20034;-60
2022/05/10 06:56:03;;;;;;;4.63;4.18;;;30.40;50.40;;;;;;4957931;28;20024;-60
2022/05/10 06:58:29;;;;;;;6.80;4.50;;;30.70;49.30;;;;;;4962208;28;20042;-60
2022/05/10 07:00:55;;;;;;;5.07;4.63;;;30.80;50.70;;;;;;4971879;28;20508;-60
2022/05/10 07:03:31;;;;;;;4.65;4.35;;;31.00;49.80;;;;;;4972343;28;20505;-62
2022/05/10 07:06:02;;;;;;;4.70;4.30;;;31.00;48.40;;;;;;4972775;28;20414;-60
2022/05/10 07:08:29;;;;;;;4.45;4.15;;;31.90;49.00;;;;;;4954931;28;20031;-61
2022/05/10 07:10:54;;;;;;;4.35;4.00;;;32.00;47.50;;;;;;4970952;28;20019;-60
2022/05/10 07:13:23;;;;;;;4.30;3.97;;;32.00;48.60;;;;;;4971326;28;20054;-60
2022/05/10 07:15:49;;;;;;;4.18;3.88;;;31.90;48.20;;;;;;4971742;28;20060;-61
2022/05/10 07:18:15;;;;;;;5.47;3.83;;;31.50;47.40;;;;;;4971319;28;20105;-60
2022/05/10 07:20:41;;;;;;;5.72;4.07;;;30.90;48.30;;;;;;4972018;28;20031;-60
2022/05/10 07:23:08;;;;;;;21.88;4.88;;;30.30;48.10;;;;;;4971496;28;20033;-60
2022/05/10 07:25:34;;;;;;;5.30;4.65;;;29.70;49.90;;;;;;4971625;28;20466;-60
2022/05/10 07:28:00;;;;;;;4.60;4.22;;;29.00;50.20;;;;;;4971690;28;20107;-60
2022/05/10 07:30:27;;;;;;;5.25;4.53;;;28.80;54.00;;;;;;4970185;28;20027;-61
2022/05/10 07:32:53;;;;;;;4.55;4.22;;;28.50;52.00;;;;;;4972356;28;20035;-60
2022/05/10 07:38:06;;;;;;;4.60;4.30;;;28.10;55.60;;;;;;4971280;28;20038;-60
2022/05/10 07:40:32;;;;;;;4.40;3.97;;;29.00;52.20;;;;;;4971337;28;20035;-60
2022/05/10 07:42:58;;;;;;;4.53;4.22;;;30.20;51.00;;;;;;4972100;28;20027;-61
2022/05/10 07:45:24;;;;;;;4.70;4.30;;;30.50;49.60;;;;;;4971565;28;20110;-60
2022/05/10 07:47:49;;;;;;;5.75;3.83;;;30.20;50.30;;;;;;4972706;28;20026;-60
2022/05/10 07:50:16;;;;;;;4.45;4.05;;;30.50;51.10;;;;;;4972220;28;20025;-61
2022/05/10 07:52:42;;;;;;;4.45;4.15;;;30.20;49.60;;;;;;4970744;28;20035;-60
2022/05/10 07:55:09;;;;;;;4.30;4.00;;;30.60;50.00;;;;;;4971630;28;20125;-61
2022/05/10 07:57:34;;;;;;;4.13;3.83;;;31.50;50.80;;;;;;4970905;28;20059;-61
2022/05/10 08:00:00;;;;;;;3.83;3.53;;;32.60;48.80;;;;;;4972352;28;20502;-61
2022/05/10 08:02:26;;;;;;;3.70;3.40;;;33.40;46.90;;;;;;4971683;28;20158;-61
2022/05/10 08:04:51;;;;;;;4.68;4.20;;;33.90;46.50;;;;;;4971116;28;20037;-61
2022/05/10 08:07:17;;;;;;;4.60;4.18;;;33.20;45.20;;;;;;4971434;28;20038;-61
2022/05/10 08:09:42;;;;;;;4.00;3.45;;;33.10;45.40;;;;;;4970885;28;20097;-61
2022/05/10 08:12:08;;;;;;;3.97;3.67;;;33.00;48.00;;;;;;4971574;28;20312;-61
2022/05/10 08:14:34;;;;;;;4.90;4.05;;;33.30;47.40;;;;;;4970005;28;20035;-61
2022/05/10 08:17:00;;;;;;;4.30;4.00;;;33.70;45.20;;;;;;4970868;28;20503;-61
2022/05/10 08:19:26;;;;;;;5.70;4.45;;;33.40;45.20;;;;;;4970891;28;20111;-61
2022/05/10 08:21:55;;;;;;;3.85;3.55;;;33.90;44.70;;;;;;4969485;28;20090;-61
2022/05/10 08:24:22;;;;;;;4.73;3.73;;;34.60;43.50;;;;;;4970872;28;20031;-61
2022/05/10 08:26:47;;;;;;;3.72;3.47;;;35.60;43.50;;;;;;4970892;28;20058;-61
2022/05/10 08:29:13;;;;;;;3.75;3.45;;;36.00;42.90;;;;;;4971477;28;20646;-61
2022/05/10 08:31:40;;;;;;;3.60;3.30;;;35.40;43.50;;;;;;4970021;28;20034;-61
2022/05/10 08:34:06;;;;;;;4.38;3.97;;;34.90;42.70;;;;;;4970789;28;20031;-61
2022/05/10 08:36:32;;;;;;;3.45;3.22;;;34.30;43.40;;;;;;4970082;28;20033;-61
2022/05/10 08:38:58;;;;;;;4.05;3.75;;;33.70;44.40;;;;;;4971287;28;20082;-61
2022/05/10 08:41:52;;;;;;;4.07;3.78;;;34.00;46.50;;;;;;4970751;28;20027;-61
2022/05/10 08:44:25;;;;;;;4.03;3.20;;;34.80;45.50;;;;;;4969889;28;20046;-61
2022/05/10 08:47:06;;;;;;;3.65;3.35;;;35.90;44.00;;;;;;4970618;28;20031;-61
2022/05/10 08:50:03;;;;;;;4.57;3.20;;;36.10;41.40;;;;;;4970671;28;20031;-61
2022/05/10 08:52:33;;;;;;;3.67;3.38;;;35.90;41.50;;;;;;4953156;28;20133;-61
2022/05/10 08:54:59;;;;;;;3.25;2.97;;;36.20;41.40;;;;;;4968581;28;20117;-61
2022/05/10 08:57:34;;;;;;;6.07;3.42;;;35.60;42.20;;;;;;4970519;28;20486;-61
2022/05/10 09:00:16;;;;;;;3.60;3.30;;;35.80;40.80;;;;;;4970160;28;20026;-61
2022/05/10 09:02:46;;;;;;;10.65;4.10;;;35.00;41.90;;;;;;4970302;28;20031;-61
2022/05/10 09:05:24;;;;;;;4.55;3.83;;;35.10;41.00;;;;;;4969107;28;20034;-61
2022/05/10 09:08:27;;;;;;;6.05;2.97;;;35.30;41.10;;;;;;4970846;28;20039;-61
2022/05/10 09:11:01;;;;;;;4.70;3.40;;;35.80;42.20;;;;;;4968765;28;20027;-61
2022/05/10 09:13:27;;;;;;;4.07;2.92;;;35.90;40.50;;;;;;4968747;28;20047;-61
2022/05/10 09:16:00;;;;;;;3.60;3.30;;;36.00;42.30;;;;;;4970134;28;20117;-61
2022/05/10 09:18:37;;;;;;;5.40;3.22;;;35.60;42.30;;;;;;4969290;28;20027;-61
2022/05/10 09:21:35;;;;;;;3.47;3.20;;;35.40;41.00;;;;;;4970322;28;20015;-60
2022/05/10 09:24:09;;;;;;;4.22;3.80;;;35.10;43.10;;;;;;4967936;28;20135;-60
2022/05/10 09:26:44;;;;;;;3.60;3.30;;;34.30;43.40;;;;;;4969691;28;20082;-61
2022/05/10 09:29:12;;;;;;;3.35;3.15;;;34.70;43.80;;;;;;4969846;28;20027;-61
2022/05/10 09:37:18;;;;;;;3.83;3.50;;;34.60;41.30;;;;;;4969420;28;20398;-61
2022/05/10 09:39:49;;;;;;;3.42;3.13;;;34.80;44.30;;;;;;4969459;28;20026;-61
2022/05/10 09:42:37;;;;;;;3.17;2.88;;;34.70;44.00;;;;;;4970790;28;20110;-61
2022/05/10 09:45:10;;;;;;;3.13;2.90;;;34.70;43.90;;;;;;4943915;28;20508;-61
2022/05/10 09:47:36;;;;;;;2.53;2.40;;;34.70;44.80;;;;;;4969487;28;20038;-61
2022/05/10 09:50:14;;;;;;;4.20;2.88;;;34.90;44.20;;;;;;4969981;28;20022;-61
2022/05/10 09:52:41;;;;;;;3.20;2.28;;;35.50;42.50;;;;;;4969465;28;20034;-61
2022/05/10 09:55:09;;;;;;;5.10;2.97;;;35.30;42.30;;;;;;4960358;28;20027;-61
2022/05/10 09:57:39;;;;;;;3.35;3.05;;;34.80;43.00;;;;;;4952820;28;20035;-60
2022/05/10 10:00:11;;;;;;;4.85;3.40;;;34.50;43.80;;;;;;4970013;28;20391;-60
2022/05/10 10:02:38;;;;;;;3.45;3.15;;;34.40;44.60;;;;;;4969485;28;20490;-60
2022/05/10 10:05:44;;;;;;;5.40;3.63;;;33.70;44.30;;;;;;4968095;28;20031;-60
2022/05/10 10:08:11;;;;;;;5.43;3.20;;;33.00;43.20;;;;;;4884671;29;20032;-61
2022/05/10 10:10:37;;;;;;;3.67;3.38;;;31.90;45.40;;;;;;4886144;29;20501;-60
2022/05/10 10:13:32;;;;;;;6.88;2.95;;;30.80;46.10;;;;;;4925079;28;20125;-60
2022/05/10 10:15:58;;;;;;;3.72;3.10;;;30.20;48.10;;;;;;4969042;28;20046;-61
2022/05/10 10:18:45;;;;;;;3.55;3.25;;;29.90;47.20;;;;;;4968507;28;20061;-60
2022/05/10 10:21:51;;;;;;;3.25;3.05;;;29.80;50.90;;;;;;4970913;28;20363;-60
2022/05/10 10:24:27;;;;;;;3.58;3.33;;;29.70;51.50;;;;;;4972032;28;20070;-60
2022/05/10 10:27:02;;;;;;;3.65;3.22;;;29.40;50.80;;;;;;4973251;28;20031;-60
2022/05/10 10:29:55;;;;;;;3.00;2.58;;;29.70;49.80;;;;;;4972875;28;20063;-60
2022/05/10 10:32:32;;;;;;;3.40;3.10;;;30.70;48.70;;;;;;4972568;28;20806;-60
2022/05/10 10:35:13;;;;;;;3.08;2.80;;;31.60;45.80;;;;;;4973160;28;20031;-60
2022/05/10 10:37:57;;;;;;;3.70;2.92;;;32.00;47.30;;;;;;4973132;28;20502;-60
2022/05/10 10:40:30;;;;;;;2.90;2.60;;;32.50;43.60;;;;;;4973536;28;20669;-60
2022/05/10 10:43:16;;;;;;;3.20;3.00;;;32.30;43.20;;;;;;4972014;28;20050;-60
2022/05/10 10:46:01;;;;;;;3.85;2.75;;;32.00;47.90;;;;;;4972926;28;20066;-60
2022/05/10 10:48:45;;;;;;;2.55;2.35;;;31.40;46.70;;;;;;4972496;28;20022;-60
2022/05/10 10:51:12;;;;;;;2.58;2.38;;;31.40;44.70;;;;;;4973170;28;20070;-60
2022/05/10 10:53:39;;;;;;;2.15;1.95;;;31.60;45.70;;;;;;4952435;29;20031;-60
2022/05/10 10:56:29;;;;;;;6.10;2.45;;;31.90;43.90;;;;;;4968177;28;20038;-60
2022/05/10 10:59:36;;;;;;;3.92;2.60;;;32.70;43.00;;;;;;4972152;28;20393;-60
2022/05/10 11:02:05;;;;;;;2.17;1.98;;;33.20;44.10;;;;;;4951660;28;20093;-60
2022/05/10 11:05:01;;;;;;;6.18;2.67;;;33.30;41.70;;;;;;4971760;28;20510;-60
2022/05/10 11:07:33;;;;;;;3.03;2.40;;;32.70;44.40;;;;;;4972863;28;20066;-60
2022/05/10 11:10:07;;;;;;;3.72;3.00;;;32.20;45.80;;;;;;4972430;28;20080;-60
2022/05/10 11:12:57;;;;;;;3.33;2.25;;;31.80;44.00;;;;;;4972649;28;20101;-60
2022/05/10 11:15:48;;;;;;;2.30;2.10;;;31.60;44.70;;;;;;4971022;28;20493;-60
2022/05/10 11:18:32;;;;;;;3.97;2.33;;;31.80;45.00;;;;;;4972487;28;20094;-60
2022/05/10 11:21:21;;;;;;;3.28;2.42;;;32.00;43.50;;;;;;4946347;28;20039;-60
2022/05/10 11:24:05;;;;;;;3.10;2.80;;;31.80;44.10;;;;;;4972903;28;20039;-60
2022/05/10 11:26:40;;;;;;;5.38;3.00;;;30.90;44.60;;;;;;4972335;28;20034;-59
2022/05/10 11:29:49;;;;;;;2.55;2.33;;;30.50;46.80;;;;;;4971215;28;20031;-60
2022/05/10 11:32:53;;;;;;;3.47;2.25;;;30.70;46.20;;;;;;4960920;28;20121;-60
2022/05/10 11:35:28;;;;;;;3.00;2.35;;;31.00;45.20;;;;;;4972211;28;20561;-59
2022/05/10 11:37:59;;;;;;;2.92;2.58;;;31.20;43.40;;;;;;4972362;28;20027;-60
2022/05/10 11:40:31;;;;;;;5.18;2.63;;;31.20;45.10;;;;;;4972343;28;20387;-60
2022/05/10 11:43:07;;;;;;;2.97;2.45;;;31.70;44.20;;;;;;4971312;28;20423;-60
2022/05/10 11:45:36;;;;;;;2.67;2.47;;;32.10;44.50;;;;;;4970459;28;20023;-60
2022/05/10 11:48:17;;;;;;;3.05;2.17;;;32.70;41.50;;;;;;4972207;28;20022;-60
2022/05/10 11:51:38;;;;;;;;;;;32.50;42.20;;;;;;4953111;29;20140;-60
2022/05/10 11:53:30;;;;;;;2.85;2.25;;;32.40;43.10;;;;;;4952341;29;19922;-60
2022/05/10 11:56:01;;;;;;;2.67;2.35;;;32.50;44.00;;;;;;4952121;28;20098;-60
2022/05/10 11:58:29;;;;;;;2.67;2.17;;;32.60;44.80;;;;;;4956492;28;20133;-60
2022/05/10 12:00:55;;;;;;;3.17;2.50;;;32.40;40.50;;;;;;4967480;28;20042;-60
2022/05/10 12:03:51;;;;;;;2.33;2.00;;;32.00;40.40;;;;;;4972707;28;20089;-61
2022/05/10 12:06:23;;;;;;;3.30;2.10;;;30.90;41.50;;;;;;4945226;28;20042;-60
2022/05/10 12:08:52;;;;;;;2.83;2.10;;;30.10;46.10;;;;;;4971299;28;20089;-60
2022/05/10 12:11:33;;;;;;;3.17;2.05;;;30.40;45.90;;;;;;4972213;28;20027;-60
2022/05/10 12:22:17;;;;;;;2.10;1.90;;;32.50;43.10;;;;;;4970341;28;20046;-60
2022/05/10 12:24:52;;;;;;;2.13;1.80;;;32.90;40.40;;;;;;4970861;28;20049;-60
2022/05/10 12:27:20;;;;;;;2.10;1.92;;;32.50;37.50;;;;;;4971628;28;20019;-61
2022/05/10 12:29:46;;;;;;;3.15;2.35;;;31.70;41.90;;;;;;4970626;28;20078;-60
2022/05/10 12:32:33;;;;;;;2.60;2.30;;;31.20;41.90;;;;;;4971138;28;20402;-60
2022/05/10 12:35:01;;;;;;;2.20;2.00;;;31.00;44.30;;;;;;4968672;28;20035;-60
2022/05/10 12:37:27;;;;;;;3.47;2.10;;;31.00;42.50;;;;;;4970119;28;20069;-60
2022/05/10 12:39:54;;;;;;;1.98;1.77;;;31.10;44.00;;;;;;4970613;28;20090;-60
2022/05/10 12:42:45;;;;;;;3.10;1.98;;;31.20;43.60;;;;;;4970728;28;20026;-60
2022/05/10 12:45:41;;;;;;;1.70;1.60;;;31.20;41.20;;;;;;4970435;28;20360;-60
2022/05/10 12:48:18;;;;;;;2.90;2.20;;;31.50;42.60;;;;;;4971081;28;20035;-60
2022/05/10 12:51:07;;;;;;;5.05;1.98;;;31.70;42.40;;;;;;4969973;28;20070;-60
2022/05/10 12:53:47;;;;;;;2.58;2.00;;;31.90;41.90;;;;;;4970220;28;20517;-60
2022/05/10 12:56:25;;;;;;;2.17;2.08;;;32.00;42.20;;;;;;4970453;28;20082;-60
2022/05/10 12:59:03;;;;;;;2.83;1.85;;;32.10;41.00;;;;;;4968208;28;20118;-61
2022/05/10 13:01:37;;;;;;;5.05;2.08;;;32.20;41.60;;;;;;4970702;28;20045;-61
2022/05/10 13:04:13;;;;;;;1.90;1.70;;;32.40;40.20;;;;;;4969356;28;20027;-61
2022/05/10 13:06:56;;;;;;;2.70;1.77;;;32.50;40.30;;;;;;4970823;28;20027;-60
2022/05/10 13:09:40;;;;;;;3.40;1.40;;;32.40;38.50;;;;;;4969765;28;20022;-61
2022/05/10 13:12:28;;;;;;;3.45;1.80;;;32.40;40.90;;;;;;4971356;28;20030;-60
2022/05/10 13:15:02;;;;;;;4.10;1.80;;;32.20;41.00;;;;;;4968659;28;20042;-60
2022/05/10 13:17:33;;;;;;;2.45;2.22;;;32.10;41.30;;;;;;4969948;28;20038;-60
2022/05/10 13:20:06;;;;;;;2.55;1.83;;;32.10;44.20;;;;;;4969627;28;20053;-61
2022/05/10 13:22:32;;;;;;;1.70;1.60;;;32.20;41.10;;;;;;4944199;28;20035;-61
2022/05/10 13:25:00;;;;;;;2.58;1.90;;;32.40;40.20;;;;;;4969813;28;20034;-61
2022/05/10 13:27:32;;;;;;;3.28;2.22;;;32.70;39.90;;;;;;4970441;28;20102;-61